Time,TemperatureF,DewpointF,PressureIn,WindDirection,WindDirectionDegrees,WindSpeedMPH,WindSpeedGustMPH,Humidity,HourlyPrecipIn,Conditions,Clouds,dailyrainin,SoftwareType,DateUTC
2013-01-13 00:02:00,56.8,56.2,29.65,North,0,0.0,0.0,97,0.00,,,0.01,fowsr,2013-01-13 05:02:00,
2013-01-13 00:05:00,56.8,56.2,29.65,North,0,0.0,0.0,97,0.00,,,0.01,fowsr,2013-01-13 05:05:00,
2013-01-13 00:10:00,57.2,56.3,29.65,North,0,0.0,0.0,96,0.00,,,0.01,fowsr,2013-01-13 05:10:00,
2013-01-13 00:15:00,57.4,56.5,29.66,South,180,0.0,0.0,96,0.00,,,0.01,fowsr,2013-01-13 05:15:00,
2013-01-13 00:25:00,57.4,56.5,29.66,South,180,0.0,0.0,96,0.00,,,0.01,fowsr,2013-01-13 05:25:00,
2013-01-13 00:30:00,57.2,56.3,29.66,South,180,0.0,0.0,96,0.00,,,0.01,fowsr,2013-01-13 05:30:00,
2013-01-13 00:35:00,57.2,56.3,29.65,South,180,0.0,0.0,96,0.00,,,0.01,fowsr,2013-01-13 05:35:00,
2013-01-13 00:40:00,57.2,56.3,29.65,South,180,0.0,0.0,96,0.00,,,0.01,fowsr,2013-01-13 05:40:00,
2013-01-13 00:45:00,57.2,56.3,29.65,South,180,0.0,0.0,96,0.00,,,0.01,fowsr,2013-01-13 05:45:00,
2013-01-13 00:50:00,57.2,56.3,29.65,South,180,0.0,0.0,96,0.00,,,0.01,fowsr,2013-01-13 05:50:00,
2013-01-13 00:55:00,57.4,56.5,29.65,South,180,0.0,0.0,96,0.00,,,0.01,fowsr,2013-01-13 05:55:00,
2013-01-13 01:00:00,57.6,56.7,29.65,South,180,0.0,0.0,96,0.00,,,0.01,fowsr,2013-01-13 06:00:00,
2013-01-13 01:05:00,57.6,56.7,29.66,South,180,0.0,0.0,96,0.00,,,0.01,fowsr,2013-01-13 06:05:00,
2013-01-13 01:10:00,57.6,56.7,29.66,South,180,0.0,0.0,96,0.00,,,0.01,fowsr,2013-01-13 06:10:00,
2013-01-13 01:15:00,57.6,56.7,29.65,South,180,0.0,0.0,96,0.00,,,0.01,fowsr,2013-01-13 06:15:00,
2013-01-13 01:20:00,57.4,56.5,29.65,South,180,0.0,0.0,96,0.00,,,0.01,fowsr,2013-01-13 06:20:00,
2013-01-13 01:25:00,57.4,56.5,29.65,South,180,0.0,0.0,96,0.00,,,0.01,fowsr,2013-01-13 06:25:00,
2013-01-13 01:35:00,57.7,57.1,29.66,East,90,0.0,0.0,97,0.00,,,0.01,fowsr,2013-01-13 06:35:00,
2013-01-13 01:40:00,57.7,57.1,29.66,East,90,0.0,0.0,97,0.00,,,0.01,fowsr,2013-01-13 06:40:00,
2013-01-13 01:45:00,57.7,57.1,29.66,East,90,0.0,0.0,97,0.00,,,0.01,fowsr,2013-01-13 06:45:00,
2013-01-13 01:50:00,57.6,56.9,29.66,East,90,0.0,0.0,97,0.00,,,0.01,fowsr,2013-01-13 06:50:00,
2013-01-13 01:55:00,57.6,56.9,29.66,East,90,0.0,0.0,97,0.00,,,0.01,fowsr,2013-01-13 06:55:00,
2013-01-13 02:00:00,57.4,56.7,29.66,East,90,0.0,0.0,97,0.00,,,0.01,fowsr,2013-01-13 07:00:00,
2013-01-13 02:05:00,57.4,56.7,29.66,East,90,0.0,0.0,97,0.00,,,0.01,fowsr,2013-01-13 07:05:00,
2013-01-13 02:10:00,57.2,56.6,29.67,East,90,0.0,0.0,97,0.00,,,0.01,fowsr,2013-01-13 07:10:00,
2013-01-13 02:15:00,57.0,56.6,29.66,East,90,0.0,0.0,98,0.00,,,0.01,fowsr,2013-01-13 07:15:00,
2013-01-13 02:25:00,56.7,56.2,29.66,East,90,0.0,0.0,98,0.00,,,0.01,fowsr,2013-01-13 07:25:00,
2013-01-13 02:30:00,56.7,56.2,29.66,East,90,0.0,0.0,98,0.00,,,0.01,fowsr,2013-01-13 07:30:00,
2013-01-13 02:35:00,56.7,56.2,29.66,East,90,0.0,0.0,98,0.00,,,0.01,fowsr,2013-01-13 07:35:00,
2013-01-13 02:40:00,56.5,56.1,29.66,East,90,0.0,0.0,98,0.00,,,0.01,fowsr,2013-01-13 07:40:00,
2013-01-13 02:45:00,56.3,55.7,29.67,East,90,0.0,0.0,97,0.00,,,0.01,fowsr,2013-01-13 07:45:00,
2013-01-13 02:50:00,56.1,55.5,29.67,East,90,0.0,0.0,97,0.00,,,0.01,fowsr,2013-01-13 07:50:00,
2013-01-13 02:55:00,55.9,55.3,29.66,East,90,0.0,0.0,97,0.00,,,0.01,fowsr,2013-01-13 07:55:00,
2013-01-13 03:00:00,55.8,55.1,29.66,East,90,0.0,0.0,97,0.00,,,0.01,fowsr,2013-01-13 08:00:00,
2013-01-13 03:05:00,55.8,55.1,29.66,East,90,0.0,0.0,97,0.00,,,0.01,fowsr,2013-01-13 08:05:00,
2013-01-13 03:10:00,55.8,55.1,29.65,East,90,0.0,0.0,97,0.00,,,0.01,fowsr,2013-01-13 08:10:00,
2013-01-13 03:15:00,55.8,55.1,29.65,East,90,0.0,0.0,97,0.00,,,0.01,fowsr,2013-01-13 08:15:00,
2013-01-13 03:20:00,55.8,55.1,29.65,East,90,0.0,0.0,97,0.00,,,0.01,fowsr,2013-01-13 08:20:00,
2013-01-13 03:25:00,55.6,54.9,29.65,East,90,0.0,0.0,97,0.00,,,0.01,fowsr,2013-01-13 08:25:00,
2013-01-13 03:30:00,55.6,54.9,29.65,East,90,0.0,0.0,97,0.00,,,0.01,fowsr,2013-01-13 08:30:00,
2013-01-13 03:35:00,55.6,54.9,29.65,East,90,0.0,0.0,97,0.00,,,0.01,fowsr,2013-01-13 08:35:00,
2013-01-13 03:45:00,55.4,54.8,29.65,East,90,0.0,0.0,97,0.00,,,0.01,fowsr,2013-01-13 08:45:00,
2013-01-13 03:50:00,55.4,54.8,29.65,East,90,0.0,0.0,97,0.00,,,0.01,fowsr,2013-01-13 08:50:00,
2013-01-13 04:00:00,55.2,54.6,29.65,East,90,0.0,0.0,97,0.00,,,0.01,fowsr,2013-01-13 09:00:00,
2013-01-13 04:05:00,55.2,54.6,29.65,East,90,0.0,0.0,97,0.00,,,0.01,fowsr,2013-01-13 09:05:00,
2013-01-13 04:10:00,55.2,54.6,29.65,East,90,0.0,0.0,97,0.00,,,0.01,fowsr,2013-01-13 09:10:00,
2013-01-13 04:15:00,55.2,54.6,29.65,East,90,0.0,0.0,97,0.00,,,0.01,fowsr,2013-01-13 09:15:00,
2013-01-13 04:20:00,55.2,54.6,29.65,East,90,0.0,0.0,97,0.00,,,0.01,fowsr,2013-01-13 09:20:00,
2013-01-13 04:25:00,55.2,54.6,29.65,East,90,0.0,0.0,97,0.00,,,0.01,fowsr,2013-01-13 09:25:00,
2013-01-13 04:30:00,55.4,55.0,29.65,East,90,0.0,0.0,98,0.00,,,0.01,fowsr,2013-01-13 09:30:00,
2013-01-13 04:35:00,55.2,54.6,29.64,East,90,0.0,0.0,97,0.00,,,0.01,fowsr,2013-01-13 09:35:00,
2013-01-13 04:40:00,55.2,54.6,29.64,East,90,0.0,0.0,97,0.00,,,0.00,fowsr,2013-01-13 09:40:00,
2013-01-13 04:45:00,55.2,54.6,29.64,East,90,0.0,0.0,97,0.00,,,0.00,fowsr,2013-01-13 09:45:00,
2013-01-13 04:50:00,55.2,54.6,29.65,East,90,0.0,0.0,97,0.00,,,0.00,fowsr,2013-01-13 09:50:00,
2013-01-13 04:55:00,55.2,54.6,29.65,East,90,0.0,0.0,97,0.00,,,0.00,fowsr,2013-01-13 09:55:00,
2013-01-13 05:00:00,55.2,54.6,29.64,East,90,0.0,0.0,97,0.00,,,0.00,fowsr,2013-01-13 10:00:00,
2013-01-13 05:05:00,55.2,54.6,29.64,East,90,0.0,0.0,97,0.00,,,0.00,fowsr,2013-01-13 10:05:00,
2013-01-13 05:10:00,55.2,54.6,29.65,East,90,0.0,0.0,97,0.00,,,0.00,fowsr,2013-01-13 10:10:00,
2013-01-13 05:15:00,55.2,54.6,29.65,East,90,0.0,0.0,97,0.00,,,0.00,fowsr,2013-01-13 10:15:00,
2013-01-13 05:20:00,55.2,54.6,29.65,East,90,0.0,0.0,97,0.00,,,0.00,fowsr,2013-01-13 10:20:00,
2013-01-13 05:30:00,55.2,54.6,29.65,East,90,0.0,0.0,97,0.00,,,0.00,fowsr,2013-01-13 10:30:00,
2013-01-13 05:35:00,55.2,54.6,29.65,East,90,0.0,0.0,97,0.00,,,0.00,fowsr,2013-01-13 10:35:00,
2013-01-13 05:45:00,55.0,54.4,29.65,East,90,0.0,0.0,97,0.00,,,0.00,fowsr,2013-01-13 10:45:00,
2013-01-13 05:55:00,54.9,54.2,29.65,East,90,0.0,0.0,97,0.00,,,0.00,fowsr,2013-01-13 10:55:00,
2013-01-13 06:05:00,54.7,54.0,29.65,East,90,0.0,0.0,97,0.00,,,0.00,fowsr,2013-01-13 11:05:00,
2013-01-13 06:10:00,54.7,54.0,29.65,East,90,0.0,0.0,97,0.00,,,0.00,fowsr,2013-01-13 11:10:00,
2013-01-13 06:15:00,54.7,54.0,29.65,East,90,0.0,0.0,97,0.00,,,0.00,fowsr,2013-01-13 11:15:00,
2013-01-13 06:20:00,54.7,54.0,29.66,SE,135,0.0,0.0,97,0.00,,,0.00,fowsr,2013-01-13 11:20:00,
2013-01-13 06:25:00,54.7,54.0,29.65,SE,135,0.0,0.0,97,0.00,,,0.00,fowsr,2013-01-13 11:25:00,
2013-01-13 06:30:00,54.5,53.9,29.65,SE,135,0.0,0.0,97,0.00,,,0.00,fowsr,2013-01-13 11:30:00,
2013-01-13 06:40:00,54.3,53.7,29.66,SE,135,0.0,0.0,97,0.00,,,0.00,fowsr,2013-01-13 11:40:00,
2013-01-13 06:45:00,54.3,53.7,29.66,SE,135,0.0,0.0,97,0.00,,,0.00,fowsr,2013-01-13 11:45:00,
2013-01-13 06:50:00,54.3,53.7,29.67,SE,135,0.0,0.0,97,0.00,,,0.00,fowsr,2013-01-13 11:50:00,
2013-01-13 07:00:00,54.1,53.5,29.67,SE,135,0.0,0.0,97,0.00,,,0.00,fowsr,2013-01-13 12:00:00,
2013-01-13 07:05:00,54.1,53.5,29.66,SE,135,0.0,0.0,97,0.00,,,0.00,fowsr,2013-01-13 12:05:00,
2013-01-13 07:10:00,54.0,53.3,29.67,SE,135,0.0,0.0,97,0.00,,,0.00,fowsr,2013-01-13 12:10:00,
2013-01-13 07:15:00,54.0,53.3,29.67,SE,135,0.0,0.0,97,0.00,,,0.00,fowsr,2013-01-13 12:15:00,
2013-01-13 07:20:00,54.0,53.3,29.67,SE,135,0.0,0.0,97,0.00,,,0.00,fowsr,2013-01-13 12:20:00,
2013-01-13 07:30:00,53.8,53.2,29.67,SE,135,0.0,0.0,97,0.00,,,0.00,fowsr,2013-01-13 12:30:00,
2013-01-13 07:35:00,53.6,53.0,29.68,SE,135,0.0,0.0,97,0.00,,,0.00,fowsr,2013-01-13 12:35:00,
2013-01-13 07:40:00,53.6,53.0,29.68,SE,135,0.0,0.0,97,0.00,,,0.00,fowsr,2013-01-13 12:40:00,
2013-01-13 07:45:00,53.6,53.0,29.68,SE,135,0.0,0.0,97,0.00,,,0.00,fowsr,2013-01-13 12:45:00,
2013-01-13 07:50:00,53.6,53.0,29.68,SE,135,0.0,0.0,97,0.00,,,0.00,fowsr,2013-01-13 12:50:00,
2013-01-13 07:55:00,53.6,53.0,29.68,SE,135,0.0,0.0,97,0.00,,,0.00,fowsr,2013-01-13 12:55:00,
2013-01-13 08:00:00,53.8,53.2,29.68,SE,135,0.0,0.0,97,0.00,,,0.00,fowsr,2013-01-13 13:00:00,
2013-01-13 08:05:00,54.0,53.3,29.69,SE,135,0.0,0.0,97,0.00,,,0.00,fowsr,2013-01-13 13:05:00,
2013-01-13 08:10:00,54.1,53.5,29.69,SE,135,0.0,0.0,97,0.00,,,0.00,fowsr,2013-01-13 13:10:00,
2013-01-13 08:15:00,54.5,53.9,29.68,SE,135,0.0,0.7,97,0.00,,,0.00,fowsr,2013-01-13 13:15:00,
2013-01-13 08:20:00,54.7,54.0,29.68,SE,135,0.0,0.0,97,0.00,,,0.00,fowsr,2013-01-13 13:20:00,
2013-01-13 08:25:00,55.0,54.4,29.69,SE,135,0.0,0.0,97,0.00,,,0.00,fowsr,2013-01-13 13:25:00,
2013-01-13 08:30:00,55.2,54.6,29.69,SE,135,0.0,0.0,97,0.00,,,0.00,fowsr,2013-01-13 13:30:00,
2013-01-13 08:40:00,55.6,55.2,29.69,SE,135,0.0,0.0,98,0.00,,,0.00,fowsr,2013-01-13 13:40:00,
2013-01-13 08:45:00,55.9,55.5,29.69,East,90,0.0,0.0,98,0.00,,,0.00,fowsr,2013-01-13 13:45:00,
2013-01-13 08:50:00,56.3,56.1,29.69,East,90,0.0,0.0,99,0.00,,,0.00,fowsr,2013-01-13 13:50:00,
2013-01-13 08:55:00,56.8,56.6,29.69,SE,135,0.0,0.7,99,0.00,,,0.00,fowsr,2013-01-13 13:55:00,
2013-01-13 09:00:00,57.2,56.8,29.69,SSW,202,0.0,0.7,98,0.00,,,0.00,fowsr,2013-01-13 14:00:00,
2013-01-13 09:05:00,57.6,57.1,29.69,SE,135,0.7,2.2,98,0.00,,,0.00,fowsr,2013-01-13 14:05:00,
2013-01-13 09:10:00,57.7,57.3,29.69,NE,45,0.0,1.6,98,0.00,,,0.00,fowsr,2013-01-13 14:10:00,
2013-01-13 09:15:00,58.1,57.7,29.69,NE,45,0.0,0.7,98,0.00,,,0.00,fowsr,2013-01-13 14:15:00,
2013-01-13 09:20:00,58.5,58.0,29.69,SE,135,0.7,1.6,98,0.00,,,0.00,fowsr,2013-01-13 14:20:00,
2013-01-13 09:25:00,58.8,58.6,29.69,West,270,0.0,0.0,99,0.00,,,0.00,fowsr,2013-01-13 14:25:00,
2013-01-13 09:30:00,59.2,58.7,29.69,SE,135,0.0,0.7,98,0.00,,,0.00,fowsr,2013-01-13 14:30:00,
2013-01-13 09:35:00,59.5,59.1,29.69,SE,135,1.6,2.2,98,0.00,,,0.00,fowsr,2013-01-13 14:35:00,
2013-01-13 09:40:00,59.9,59.5,29.69,SW,225,0.7,2.2,98,0.00,,,0.00,fowsr,2013-01-13 14:40:00,
2013-01-13 09:45:00,60.4,60.0,29.69,West,270,0.0,1.6,98,0.00,,,0.00,fowsr,2013-01-13 14:45:00,
2013-01-13 09:50:00,61.0,60.5,29.69,West,270,0.7,2.2,98,0.00,,,0.00,fowsr,2013-01-13 14:50:00,
2013-01-13 09:55:00,61.9,61.4,29.69,East,90,0.0,0.7,98,0.00,,,0.00,fowsr,2013-01-13 14:55:00,
2013-01-13 10:00:00,62.4,62.0,29.70,ENE,67,0.0,3.1,98,0.00,,,0.00,fowsr,2013-01-13 15:00:00,
2013-01-13 10:05:00,63.1,62.5,29.70,SE,135,3.1,3.8,97,0.00,,,0.00,fowsr,2013-01-13 15:05:00,
2013-01-13 10:10:00,63.9,63.2,29.70,NW,315,0.7,2.2,97,0.00,,,0.00,fowsr,2013-01-13 15:10:00,
2013-01-13 10:15:00,64.6,63.9,29.69,SW,225,0.7,1.6,97,0.00,,,0.00,fowsr,2013-01-13 15:15:00,
2013-01-13 10:20:00,65.1,64.4,29.69,NW,315,0.0,2.2,97,0.00,,,0.00,fowsr,2013-01-13 15:20:00,
2013-01-13 10:25:00,65.7,64.7,29.70,SSE,157,0.7,2.2,96,0.00,,,0.00,fowsr,2013-01-13 15:25:00,
2013-01-13 10:30:00,66.2,64.8,29.70,West,270,0.0,1.6,94,0.00,,,0.00,fowsr,2013-01-13 15:30:00,
2013-01-13 10:35:00,66.9,64.8,29.69,NW,315,1.6,3.1,91,0.00,,,0.00,fowsr,2013-01-13 15:35:00,
2013-01-13 10:40:00,67.3,63.9,29.69,NE,45,0.7,1.6,86,0.00,,,0.00,fowsr,2013-01-13 15:40:00,
2013-01-13 10:45:00,67.6,64.0,29.69,NW,315,0.7,2.2,85,0.00,,,0.00,fowsr,2013-01-13 15:45:00,
2013-01-13 10:50:00,68.0,63.5,29.69,NW,315,0.7,3.1,82,0.00,,,0.00,fowsr,2013-01-13 15:50:00,
2013-01-13 10:55:00,68.9,64.1,29.68,West,270,0.7,2.2,81,0.00,,,0.00,fowsr,2013-01-13 15:55:00,
2013-01-13 11:00:00,69.4,63.5,29.68,SW,225,0.0,0.7,77,0.00,,,0.00,fowsr,2013-01-13 16:00:00,
2013-01-13 11:05:00,69.6,63.4,29.68,NW,315,1.6,3.1,76,0.00,,,0.00,fowsr,2013-01-13 16:05:00,
2013-01-13 11:10:00,69.8,63.0,29.67,East,90,1.6,2.2,74,0.00,,,0.00,fowsr,2013-01-13 16:10:00,
2013-01-13 11:15:00,70.3,63.2,29.67,NW,315,2.2,4.5,73,0.00,,,0.00,fowsr,2013-01-13 16:15:00,
2013-01-13 11:20:00,70.5,63.1,29.67,West,270,1.6,2.2,72,0.00,,,0.00,fowsr,2013-01-13 16:20:00,
2013-01-13 11:25:00,71.1,63.3,29.66,SW,225,0.0,0.7,71,0.00,,,0.00,fowsr,2013-01-13 16:25:00,
2013-01-13 11:30:00,71.8,63.7,29.67,West,270,0.0,0.7,70,0.00,,,0.00,fowsr,2013-01-13 16:30:00,
2013-01-13 11:35:00,72.1,63.4,29.66,North,0,0.7,2.2,68,0.00,,,0.00,fowsr,2013-01-13 16:35:00,
2013-01-13 11:40:00,72.5,63.7,29.65,SE,135,0.7,1.6,68,0.00,,,0.00,fowsr,2013-01-13 16:40:00,
2013-01-13 11:45:00,72.7,63.9,29.65,NW,315,0.0,0.7,68,0.00,,,0.00,fowsr,2013-01-13 16:45:00,
2013-01-13 11:50:00,72.9,64.1,29.65,NW,315,0.7,1.6,68,0.00,,,0.00,fowsr,2013-01-13 16:50:00,
2013-01-13 11:55:00,72.7,63.6,29.65,West,270,0.7,1.6,67,0.00,,,0.00,fowsr,2013-01-13 16:55:00,
2013-01-13 12:00:00,73.0,63.9,29.64,West,270,0.7,2.2,67,0.00,,,0.00,fowsr,2013-01-13 17:00:00,
2013-01-13 12:05:00,73.4,63.9,29.64,East,90,1.6,3.1,66,0.00,,,0.00,fowsr,2013-01-13 17:05:00,
2013-01-13 12:10:00,74.1,64.2,29.64,SE,135,2.2,3.8,65,0.00,,,0.00,fowsr,2013-01-13 17:10:00,
2013-01-13 12:15:00,75.0,65.4,29.64,South,180,0.0,0.7,66,0.00,,,0.00,fowsr,2013-01-13 17:15:00,
2013-01-13 12:20:00,75.7,65.1,29.63,NW,315,0.0,0.7,63,0.00,,,0.00,fowsr,2013-01-13 17:20:00,
2013-01-13 12:25:00,76.1,65.0,29.63,NW,315,3.1,3.8,62,0.00,,,0.00,fowsr,2013-01-13 17:25:00,
2013-01-13 12:30:00,75.4,64.0,29.62,West,270,1.6,3.8,61,0.00,,,0.00,fowsr,2013-01-13 17:30:00,
2013-01-13 12:35:00,75.0,64.4,29.63,SE,135,0.7,1.6,63,0.00,,,0.00,fowsr,2013-01-13 17:35:00,
2013-01-13 12:40:00,75.4,64.7,29.63,West,270,0.0,1.6,63,0.00,,,0.00,fowsr,2013-01-13 17:40:00,
2013-01-13 12:45:00,76.1,65.0,29.63,South,180,1.6,3.1,62,0.00,,,0.00,fowsr,2013-01-13 17:45:00,
2013-01-13 12:50:00,76.6,65.2,29.63,West,270,0.7,2.2,61,0.00,,,0.00,fowsr,2013-01-13 17:50:00,
2013-01-13 12:55:00,77.2,65.3,29.63,East,90,0.0,0.7,60,0.00,,,0.00,fowsr,2013-01-13 17:55:00,
2013-01-13 13:00:00,77.4,65.5,29.62,East,90,1.6,3.1,60,0.00,,,0.00,fowsr,2013-01-13 18:00:00,
2013-01-13 13:05:00,77.5,65.6,29.62,SE,135,3.1,4.5,60,0.00,,,0.00,fowsr,2013-01-13 18:05:00,
2013-01-13 13:10:00,77.5,64.9,29.62,East,90,1.6,4.5,58,0.00,,,0.00,fowsr,2013-01-13 18:10:00,
2013-01-13 13:15:00,77.4,63.1,29.62,North,0,1.6,3.1,54,0.00,,,0.00,fowsr,2013-01-13 18:15:00,
2013-01-13 13:20:00,77.5,63.7,29.62,East,90,1.6,3.8,55,0.00,,,0.00,fowsr,2013-01-13 18:20:00,
2013-01-13 13:25:00,77.5,62.9,29.61,NW,315,1.6,3.1,53,0.00,,,0.00,fowsr,2013-01-13 18:25:00,
2013-01-13 13:30:00,77.4,63.1,29.61,East,90,1.6,3.1,54,0.00,,,0.00,fowsr,2013-01-13 18:30:00,
2013-01-13 13:35:00,77.5,63.7,29.61,SE,135,0.7,2.2,55,0.00,,,0.00,fowsr,2013-01-13 18:35:00,
2013-01-13 13:45:00,77.5,63.3,29.61,West,270,0.7,2.2,54,0.00,,,0.00,fowsr,2013-01-13 18:45:00,
2013-01-13 13:50:00,77.9,63.6,29.56,West,270,0.7,1.6,54,0.00,,,0.00,fowsr,2013-01-13 18:50:00,
2013-01-13 13:55:00,78.1,63.8,29.56,East,90,1.6,2.2,54,0.00,,,0.00,fowsr,2013-01-13 18:55:00,
2013-01-13 14:00:00,78.1,63.8,29.61,West,270,1.6,3.1,54,0.00,,,0.00,fowsr,2013-01-13 19:00:00,
2013-01-13 14:05:00,77.9,63.2,29.61,SW,225,6.0,9.2,53,0.00,,,0.00,fowsr,2013-01-13 19:05:00,
2013-01-13 14:10:00,77.9,63.2,29.61,West,270,0.7,1.6,53,0.00,,,0.00,fowsr,2013-01-13 19:10:00,
2013-01-13 14:15:00,78.1,63.4,29.61,South,180,0.7,1.6,53,0.00,,,0.00,fowsr,2013-01-13 19:15:00,
2013-01-13 14:20:00,77.9,63.2,29.61,NW,315,2.2,3.8,53,0.00,,,0.00,fowsr,2013-01-13 19:20:00,
2013-01-13 14:25:00,77.9,63.2,29.61,SE,135,0.7,2.2,53,0.00,,,0.00,fowsr,2013-01-13 19:25:00,
2013-01-13 14:30:00,78.4,63.7,29.61,East,90,1.6,3.1,53,0.00,,,0.00,fowsr,2013-01-13 19:30:00,
2013-01-13 14:35:00,78.1,63.0,29.61,SE,135,0.7,1.6,52,0.00,,,0.00,fowsr,2013-01-13 19:35:00,
2013-01-13 14:40:00,77.7,63.0,29.61,SE,135,0.0,0.7,53,0.00,,,0.00,fowsr,2013-01-13 19:40:00,
2013-01-13 14:45:00,77.4,62.7,29.61,NE,45,0.0,0.7,53,0.00,,,0.00,fowsr,2013-01-13 19:45:00,
2013-01-13 14:55:00,76.8,63.4,29.61,NW,315,0.0,1.6,56,0.00,,,0.00,fowsr,2013-01-13 19:55:00,
2013-01-13 15:00:00,76.5,63.1,29.62,NW,315,0.7,2.2,56,0.00,,,0.00,fowsr,2013-01-13 20:00:00,
2013-01-13 15:05:00,76.1,62.4,29.62,NW,315,0.0,0.0,55,0.00,,,0.00,fowsr,2013-01-13 20:05:00,
2013-01-13 15:10:00,75.9,62.6,29.62,SE,135,0.0,0.7,56,0.00,,,0.00,fowsr,2013-01-13 20:10:00,
2013-01-13 15:20:00,75.7,62.8,29.62,East,90,0.0,0.7,57,0.00,,,0.00,fowsr,2013-01-13 20:20:00,
2013-01-13 15:25:00,76.3,63.3,29.63,SW,225,0.7,2.2,57,0.00,,,0.00,fowsr,2013-01-13 20:25:00,
2013-01-13 15:30:00,76.6,63.3,29.62,NW,315,1.6,3.8,56,0.00,,,0.00,fowsr,2013-01-13 20:30:00,
2013-01-13 15:35:00,77.0,62.8,29.62,South,180,0.7,1.6,54,0.00,,,0.00,fowsr,2013-01-13 20:35:00,
2013-01-13 15:40:00,77.0,62.8,29.62,West,270,0.7,1.6,54,0.00,,,0.00,fowsr,2013-01-13 20:40:00,
2013-01-13 15:45:00,76.8,63.4,29.62,SE,135,0.7,3.1,56,0.00,,,0.00,fowsr,2013-01-13 20:45:00,
2013-01-13 15:50:00,76.3,62.9,29.63,SE,135,0.0,0.0,56,0.00,,,0.00,fowsr,2013-01-13 20:50:00,
2013-01-13 15:55:00,75.9,63.0,29.63,NE,45,0.7,2.2,57,0.00,,,0.00,fowsr,2013-01-13 20:55:00,
2013-01-13 16:00:00,75.7,62.8,29.63,SE,135,0.7,1.6,57,0.00,,,0.00,fowsr,2013-01-13 21:00:00,
2013-01-13 16:10:00,75.4,62.9,29.62,South,180,1.6,2.2,58,0.00,,,0.00,fowsr,2013-01-13 21:10:00,
2013-01-13 16:15:00,75.2,62.7,29.62,SE,135,2.2,3.8,58,0.00,,,0.00,fowsr,2013-01-13 21:15:00,
2013-01-13 16:20:00,74.8,62.8,29.62,SW,225,0.0,0.0,59,0.00,,,0.00,fowsr,2013-01-13 21:20:00,
2013-01-13 16:25:00,74.7,63.0,29.63,North,0,0.0,1.6,60,0.00,,,0.00,fowsr,2013-01-13 21:25:00,
2013-01-13 16:30:00,74.5,62.8,29.63,SW,225,0.0,0.7,60,0.00,,,0.00,fowsr,2013-01-13 21:30:00,
2013-01-13 16:35:00,74.3,62.6,29.63,South,180,0.7,1.6,60,0.00,,,0.00,fowsr,2013-01-13 21:35:00,
2013-01-13 16:40:00,74.1,62.8,29.63,South,180,0.0,0.7,61,0.00,,,0.00,fowsr,2013-01-13 21:40:00,
2013-01-13 16:45:00,73.8,62.9,29.63,SE,135,0.0,0.7,62,0.00,,,0.00,fowsr,2013-01-13 21:45:00,
2013-01-13 16:50:00,73.6,62.7,29.63,SE,135,0.0,1.6,62,0.00,,,0.00,fowsr,2013-01-13 21:50:00,
2013-01-13 16:55:00,73.4,62.5,29.63,SE,135,0.0,0.0,62,0.00,,,0.00,fowsr,2013-01-13 21:55:00,
2013-01-13 17:00:00,73.0,61.8,29.63,SE,135,0.0,0.0,61,0.00,,,0.00,fowsr,2013-01-13 22:00:00,
2013-01-13 17:05:00,72.7,61.9,29.63,South,180,0.0,0.0,62,0.00,,,0.00,fowsr,2013-01-13 22:05:00,
2013-01-13 17:10:00,72.3,61.5,29.64,South,180,0.0,0.7,62,0.00,,,0.00,fowsr,2013-01-13 22:10:00,
2013-01-13 17:15:00,71.8,61.4,29.63,South,180,0.0,0.0,63,0.00,,,0.00,fowsr,2013-01-13 22:15:00,
2013-01-13 17:20:00,71.6,61.5,29.63,South,180,0.0,0.0,64,0.00,,,0.00,fowsr,2013-01-13 22:20:00,
2013-01-13 17:30:00,70.3,61.0,29.63,North,0,0.0,0.0,66,0.00,,,0.00,fowsr,2013-01-13 22:30:00,
2013-01-13 17:35:00,69.8,60.8,29.63,SE,135,0.0,0.7,67,0.00,,,0.00,fowsr,2013-01-13 22:35:00,
2013-01-13 17:40:00,69.4,61.1,29.63,SE,135,0.0,0.0,69,0.00,,,0.00,fowsr,2013-01-13 22:40:00,
2013-01-13 17:45:00,69.1,61.1,29.63,East,90,0.0,0.7,70,0.00,,,0.00,fowsr,2013-01-13 22:45:00,
2013-01-13 17:50:00,68.7,60.8,29.63,East,90,0.0,0.0,70,0.00,,,0.00,fowsr,2013-01-13 22:50:00,
2013-01-13 17:55:00,68.4,60.7,29.63,East,90,0.0,0.0,71,0.00,,,0.00,fowsr,2013-01-13 22:55:00,
2013-01-13 18:00:00,68.2,60.6,29.63,East,90,0.0,0.0,71,0.00,,,0.00,fowsr,2013-01-13 23:00:00,
2013-01-13 18:05:00,67.8,60.8,29.63,East,90,0.0,0.0,73,0.00,,,0.00,fowsr,2013-01-13 23:05:00,
2013-01-13 18:15:00,67.1,60.1,29.63,East,90,0.0,0.0,73,0.00,,,0.00,fowsr,2013-01-13 23:15:00,
2013-01-13 18:20:00,66.7,60.1,29.63,East,90,0.0,0.0,74,0.00,,,0.00,fowsr,2013-01-13 23:20:00,
2013-01-13 18:25:00,66.4,59.7,29.63,East,90,0.0,0.0,74,0.00,,,0.00,fowsr,2013-01-13 23:25:00,
2013-01-13 18:30:00,66.0,60.0,29.63,East,90,0.0,0.0,76,0.00,,,0.00,fowsr,2013-01-13 23:30:00,
2013-01-13 18:35:00,65.7,59.9,29.63,NE,45,0.0,0.0,77,0.00,,,0.00,fowsr,2013-01-13 23:35:00,
2013-01-13 18:40:00,65.5,59.7,29.63,NE,45,0.0,0.0,77,0.00,,,0.00,fowsr,2013-01-13 23:40:00,
2013-01-13 18:45:00,65.3,59.8,29.64,NE,45,0.0,0.0,78,0.00,,,0.00,fowsr,2013-01-13 23:45:00,
2013-01-13 18:50:00,65.1,59.7,29.64,NE,45,0.0,0.0,78,0.00,,,0.00,fowsr,2013-01-13 23:50:00,
2013-01-13 18:55:00,64.9,59.8,29.64,NE,45,0.0,0.0,79,0.00,,,0.00,fowsr,2013-01-13 23:55:00,
2013-01-13 19:00:00,65.1,60.2,29.63,East,90,0.0,0.0,80,0.00,,,0.00,fowsr,2013-01-14 00:00:00,
2013-01-13 19:05:00,65.3,60.4,29.63,SE,135,0.0,1.6,80,0.00,,,0.00,fowsr,2013-01-14 00:05:00,
2013-01-13 19:10:00,65.5,60.6,29.63,SE,135,0.7,2.2,80,0.00,,,0.00,fowsr,2013-01-14 00:10:00,
2013-01-13 19:15:00,66.0,61.1,29.64,SE,135,0.0,0.7,80,0.00,,,0.00,fowsr,2013-01-14 00:15:00,
2013-01-13 19:20:00,66.2,60.7,29.64,SE,135,0.0,0.7,78,0.00,,,0.00,fowsr,2013-01-14 00:20:00,
2013-01-13 19:25:00,66.2,60.7,29.63,SE,135,0.7,1.6,78,0.00,,,0.00,fowsr,2013-01-14 00:25:00,
2013-01-13 19:30:00,66.4,60.9,29.63,SE,135,0.7,2.2,78,0.00,,,0.00,fowsr,2013-01-14 00:30:00,
2013-01-13 19:35:00,66.4,60.9,29.62,SE,135,0.7,2.2,78,0.00,,,0.00,fowsr,2013-01-14 00:35:00,
2013-01-13 19:40:00,66.4,60.9,29.62,SE,135,0.7,1.6,78,0.00,,,0.00,fowsr,2013-01-14 00:40:00,
2013-01-13 19:45:00,66.4,60.9,29.62,SE,135,0.0,0.7,78,0.00,,,0.00,fowsr,2013-01-14 00:45:00,
2013-01-13 19:50:00,66.4,60.9,29.62,SE,135,0.0,1.6,78,0.00,,,0.00,fowsr,2013-01-14 00:50:00,
2013-01-13 20:00:00,66.0,60.8,29.63,SE,135,0.0,1.6,79,0.00,,,0.00,fowsr,2013-01-14 01:00:00,
2013-01-13 20:05:00,65.8,60.6,29.63,SE,135,0.0,1.6,79,0.00,,,0.00,fowsr,2013-01-14 01:05:00,
2013-01-13 20:10:00,65.8,60.6,29.62,ESE,112,0.7,2.2,79,0.00,,,0.00,fowsr,2013-01-14 01:10:00,
2013-01-13 20:15:00,65.8,60.9,29.63,East,90,0.7,1.6,80,0.00,,,0.00,fowsr,2013-01-14 01:15:00,
2013-01-13 20:20:00,65.8,60.9,29.63,East,90,0.7,1.6,80,0.00,,,0.00,fowsr,2013-01-14 01:20:00,
2013-01-13 20:30:00,65.5,60.6,29.63,SE,135,0.7,1.6,80,0.00,,,0.00,fowsr,2013-01-14 01:30:00,
2013-01-13 20:35:00,65.5,60.6,29.63,East,90,0.0,1.6,80,0.00,,,0.00,fowsr,2013-01-14 01:35:00,
2013-01-13 20:40:00,65.5,60.6,29.63,East,90,0.0,0.7,80,0.00,,,0.00,fowsr,2013-01-14 01:40:00,
2013-01-13 20:45:00,65.5,60.6,29.63,East,90,0.7,1.6,80,0.00,,,0.00,fowsr,2013-01-14 01:45:00,
2013-01-13 20:50:00,65.3,60.7,29.63,SE,135,0.0,0.7,81,0.00,,,0.00,fowsr,2013-01-14 01:50:00,
2013-01-13 20:55:00,65.1,60.5,29.63,SE,135,0.7,1.6,81,0.00,,,0.00,fowsr,2013-01-14 01:55:00,
2013-01-13 21:00:00,65.3,60.7,29.63,SE,135,0.0,0.7,81,0.00,,,0.00,fowsr,2013-01-14 02:00:00,
2013-01-13 21:05:00,65.3,60.7,29.62,SE,135,0.0,0.7,81,0.00,,,0.00,fowsr,2013-01-14 02:05:00,
2013-01-13 21:10:00,65.1,60.5,29.62,SE,135,0.7,2.2,81,0.00,,,0.00,fowsr,2013-01-14 02:10:00,
2013-01-13 21:15:00,65.1,60.8,29.62,SE,135,0.7,1.6,82,0.00,,,0.00,fowsr,2013-01-14 02:15:00,
2013-01-13 21:20:00,65.1,60.8,29.62,SE,135,0.0,0.7,82,0.00,,,0.00,fowsr,2013-01-14 02:20:00,
2013-01-13 21:25:00,64.9,60.6,29.63,East,90,0.7,1.6,82,0.00,,,0.00,fowsr,2013-01-14 02:25:00,
2013-01-13 21:35:00,64.8,60.4,29.63,East,90,0.7,1.6,82,0.00,,,0.00,fowsr,2013-01-14 02:35:00,
2013-01-13 21:40:00,64.9,60.6,29.63,SE,135,1.6,3.1,82,0.00,,,0.00,fowsr,2013-01-14 02:40:00,
2013-01-13 21:45:00,64.9,60.6,29.63,SE,135,1.6,3.1,82,0.00,,,0.00,fowsr,2013-01-14 02:45:00,
2013-01-13 21:50:00,64.9,60.6,29.63,East,90,0.7,2.2,82,0.00,,,0.00,fowsr,2013-01-14 02:50:00,
2013-01-13 21:55:00,64.8,60.4,29.63,East,90,0.7,2.2,82,0.00,,,0.00,fowsr,2013-01-14 02:55:00,
2013-01-13 22:00:00,64.8,60.4,29.64,East,90,0.7,1.6,82,0.00,,,0.00,fowsr,2013-01-14 03:00:00,
2013-01-13 22:05:00,64.8,60.4,29.64,SE,135,1.6,2.2,82,0.00,,,0.00,fowsr,2013-01-14 03:05:00,
2013-01-13 22:10:00,64.6,60.2,29.64,SE,135,0.0,0.7,82,0.00,,,0.00,fowsr,2013-01-14 03:10:00,
2013-01-13 22:15:00,64.6,60.2,29.64,East,90,0.7,3.1,82,0.00,,,0.00,fowsr,2013-01-14 03:15:00,
2013-01-13 22:20:00,64.6,60.5,29.64,NE,45,0.7,1.6,83,0.00,,,0.00,fowsr,2013-01-14 03:20:00,
2013-01-13 22:25:00,64.6,60.5,29.64,SSE,157,1.6,3.1,83,0.00,,,0.00,fowsr,2013-01-14 03:25:00,
2013-01-13 22:30:00,64.6,60.5,29.64,East,90,0.7,2.2,83,0.00,,,0.00,fowsr,2013-01-14 03:30:00,
2013-01-13 22:35:00,64.4,60.3,29.64,East,90,0.7,1.6,83,0.00,,,0.00,fowsr,2013-01-14 03:35:00,
2013-01-13 22:40:00,64.6,60.5,29.64,SE,135,0.0,0.7,83,0.00,,,0.00,fowsr,2013-01-14 03:40:00,
2013-01-13 22:45:00,64.6,60.5,29.64,SE,135,0.0,0.7,83,0.00,,,0.00,fowsr,2013-01-14 03:45:00,
2013-01-13 22:50:00,64.6,60.5,29.64,SE,135,0.0,0.7,83,0.00,,,0.00,fowsr,2013-01-14 03:50:00,
2013-01-13 22:55:00,64.6,60.5,29.64,East,90,0.7,1.6,83,0.00,,,0.00,fowsr,2013-01-14 03:55:00,
2013-01-13 23:00:00,64.6,60.2,29.64,NE,45,0.7,1.6,82,0.00,,,0.00,fowsr,2013-01-14 04:00:00,
2013-01-13 23:05:00,64.6,60.2,29.64,NE,45,0.7,1.6,82,0.00,,,0.00,fowsr,2013-01-14 04:05:00,
2013-01-13 23:10:00,64.4,60.3,29.64,SE,135,1.6,2.2,83,0.00,,,0.00,fowsr,2013-01-14 04:10:00,
2013-01-13 23:15:00,64.4,60.3,29.65,East,90,0.0,1.6,83,0.00,,,0.00,fowsr,2013-01-14 04:15:00,
2013-01-13 23:20:00,64.4,60.3,29.64,SE,135,0.7,3.1,83,0.00,,,0.00,fowsr,2013-01-14 04:20:00,
2013-01-13 23:25:00,64.4,60.3,29.65,East,90,1.6,3.1,83,0.00,,,0.00,fowsr,2013-01-14 04:25:00,
2013-01-13 23:30:00,64.6,60.5,29.65,WNW,292,1.6,3.8,83,0.00,,,0.00,fowsr,2013-01-14 04:30:00,
2013-01-13 23:35:00,64.6,60.5,29.64,SE,135,0.7,2.2,83,0.00,,,0.00,fowsr,2013-01-14 04:35:00,
2013-01-13 23:40:00,64.6,60.5,29.65,SE,135,0.7,2.2,83,0.00,,,0.00,fowsr,2013-01-14 04:40:00,
2013-01-13 23:45:00,64.6,60.5,29.64,SE,135,1.6,3.1,83,0.00,,,0.00,fowsr,2013-01-14 04:45:00,
2013-01-13 23:50:00,64.6,60.5,29.63,SE,135,2.2,3.8,83,0.00,,,0.00,fowsr,2013-01-14 04:50:00,
2013-01-13 23:55:00,64.6,60.5,29.64,SE,135,0.7,2.2,83,0.00,,,0.00,fowsr,2013-01-14 04:55:00,